sensor_id;sensor_type;location;lat;lon;timestamp;pressure;altitude;pressure_sealevel;temperature;humidity
4398;BME280;2213;49.720;7.296;2022-07-17T00:01:09;99040.72;;;17.08;73.59
4398;BME280;2213;49.720;7.296;2022-07-17T00:03:39;99047.81;;;17.08;73.50
4398;BME280;2213;49.720;7.296;2022-07-17T00:06:10;99047.00;;;17.01;74.12
4398;BME280;2213;49.720;7.296;2022-07-17T00:08:40;99048.25;;;16.98;74.35
4398;BME280;2213;49.720;7.296;2022-07-17T00:11:12;99046.41;;;16.99;75.24
4398;BME280;2213;49.720;7.296;2022-07-17T00:13:42;99039.91;;;16.95;74.56
4398;BME280;2213;49.720;7.296;2022-07-17T00:16:13;99044.78;;;16.85;75.00
4398;BME280;2213;49.720;7.296;2022-07-17T00:18:44;99043.13;;;16.77;75.55
4398;BME280;2213;49.720;7.296;2022-07-17T00:21:13;99039.69;;;16.70;76.07
4398;BME280;2213;49.720;7.296;2022-07-17T00:23:43;99035.41;;;16.63;76.36
4398;BME280;2213;49.720;7.296;2022-07-17T00:26:14;99035.38;;;16.56;76.90
4398;BME280;2213;49.720;7.296;2022-07-17T00:28:45;99028.88;;;16.52;76.90
4398;BME280;2213;49.720;7.296;2022-07-17T00:31:15;99035.34;;;16.49;77.21
4398;BME280;2213;49.720;7.296;2022-07-17T00:33:44;99026.19;;;16.45;77.40
4398;BME280;2213;49.720;7.296;2022-07-17T00:36:14;99019.72;;;16.41;77.63
4398;BME280;2213;49.720;7.296;2022-07-17T00:38:44;99023.94;;;16.29;78.87
4398;BME280;2213;49.720;7.296;2022-07-17T00:41:16;99033.25;;;16.25;78.92
4398;BME280;2213;49.720;7.296;2022-07-17T00:43:46;99027.97;;;16.19;79.71
4398;BME280;2213;49.720;7.296;2022-07-17T00:46:16;99030.59;;;16.19;79.49
4398;BME280;2213;49.720;7.296;2022-07-17T00:48:45;99039.34;;;16.19;79.45
4398;BME280;2213;49.720;7.296;2022-07-17T00:51:15;99038.94;;;16.22;79.50
4398;BME280;2213;49.720;7.296;2022-07-17T00:53:46;99036.88;;;16.18;79.35
4398;BME280;2213;49.720;7.296;2022-07-17T00:56:22;99027.13;;;16.11;79.53
4398;BME280;2213;49.720;7.296;2022-07-17T00:58:52;99032.63;;;16.10;79.83
4398;BME280;2213;49.720;7.296;2022-07-17T01:01:23;99033.22;;;16.12;79.94
4398;BME280;2213;49.720;7.296;2022-07-17T01:03:52;99030.34;;;16.07;79.89
4398;BME280;2213;49.720;7.296;2022-07-17T01:06:25;99027.50;;;16.02;80.11
4398;BME280;2213;49.720;7.296;2022-07-17T01:08:55;99021.81;;;15.98;80.03
4398;BME280;2213;49.720;7.296;2022-07-17T01:11:26;99027.28;;;15.97;80.33
4398;BME280;2213;49.720;7.296;2022-07-17T01:13:58;99022.22;;;15.95;80.04
4398;BME280;2213;49.720;7.296;2022-07-17T01:16:28;99034.34;;;15.90;80.30
4398;BME280;2213;49.720;7.296;2022-07-17T01:18:58;99029.03;;;15.83;80.82
4398;BME280;2213;49.720;7.296;2022-07-17T01:21:39;99025.56;;;15.76;81.14
4398;BME280;2213;49.720;7.296;2022-07-17T01:24:10;99033.44;;;15.70;81.67
4398;BME280;2213;49.720;7.296;2022-07-17T01:26:41;99037.72;;;15.71;81.90
4398;BME280;2213;49.720;7.296;2022-07-17T01:29:14;99034.91;;;15.72;82.29
4398;BME280;2213;49.720;7.296;2022-07-17T01:31:47;99035.88;;;15.65;82.00
4398;BME280;2213;49.720;7.296;2022-07-17T01:34:18;99034.19;;;15.57;82.60
4398;BME280;2213;49.720;7.296;2022-07-17T01:36:48;99028.66;;;15.52;82.64
4398;BME280;2213;49.720;7.296;2022-07-17T01:39:18;99037.41;;;15.52;83.12
4398;BME280;2213;49.720;7.296;2022-07-17T01:42:08;99035.16;;;15.49;82.78
4398;BME280;2213;49.720;7.296;2022-07-17T01:44:39;99036.16;;;15.48;83.48
4398;BME280;2213;49.720;7.296;2022-07-17T01:47:09;99032.47;;;15.43;83.68
4398;BME280;2213;49.720;7.296;2022-07-17T01:49:43;99029.78;;;15.36;83.97
4398;BME280;2213;49.720;7.296;2022-07-17T01:52:15;99029.34;;;15.33;84.23
4398;BME280;2213;49.720;7.296;2022-07-17T01:54:45;99030.34;;;15.32;83.81
4398;BME280;2213;49.720;7.296;2022-07-17T01:57:15;99024.66;;;15.28;84.43
4398;BME280;2213;49.720;7.296;2022-07-17T01:59:44;99026.28;;;15.29;84.83
4398;BME280;2213;49.720;7.296;2022-07-17T02:02:14;99025.44;;;15.22;84.69
4398;BME280;2213;49.720;7.296;2022-07-17T02:04:44;99031.47;;;15.16;84.74
4398;BME280;2213;49.720;7.296;2022-07-17T02:07:16;99030.22;;;15.12;85.02
4398;BME280;2213;49.720;7.296;2022-07-17T02:09:45;99037.06;;;15.06;85.25
4398;BME280;2213;49.720;7.296;2022-07-17T02:12:16;99027.09;;;15.02;85.08
4398;BME280;2213;49.720;7.296;2022-07-17T02:14:46;99022.22;;;14.99;85.37
4398;BME280;2213;49.720;7.296;2022-07-17T02:17:17;99026.81;;;14.90;86.09
4398;BME280;2213;49.720;7.296;2022-07-17T02:19:47;99023.13;;;14.85;86.68
4398;BME280;2213;49.720;7.296;2022-07-17T02:22:17;99023.13;;;14.85;86.99
4398;BME280;2213;49.720;7.296;2022-07-17T02:24:47;99029.00;;;14.87;86.43
4398;BME280;2213;49.720;7.296;2022-07-17T02:27:17;99026.56;;;14.85;86.27
4398;BME280;2213;49.720;7.296;2022-07-17T02:29:47;99027.69;;;14.76;87.07
4398;BME280;2213;49.720;7.296;2022-07-17T02:32:16;99027.06;;;14.74;87.43
4398;BME280;2213;49.720;7.296;2022-07-17T02:34:47;99028.63;;;14.69;87.54
4398;BME280;2213;49.720;7.296;2022-07-17T02:37:18;99029.81;;;14.66;87.64
4398;BME280;2213;49.720;7.296;2022-07-17T02:39:47;99022.88;;;14.58;88.03
4398;BME280;2213;49.720;7.296;2022-07-17T02:42:22;99025.88;;;14.55;88.76
4398;BME280;2213;49.720;7.296;2022-07-17T02:44:52;99031.69;;;14.51;89.06
4398;BME280;2213;49.720;7.296;2022-07-17T02:47:22;99036.34;;;14.49;88.60
4398;BME280;2213;49.720;7.296;2022-07-17T02:49:51;99023.81;;;14.51;88.83
4398;BME280;2213;49.720;7.296;2022-07-17T02:52:22;99032.66;;;14.43;89.04
4398;BME280;2213;49.720;7.296;2022-07-17T02:54:50;99030.31;;;14.34;89.57
4398;BME280;2213;49.720;7.296;2022-07-17T02:57:21;99025.75;;;14.28;90.04
4398;BME280;2213;49.720;7.296;2022-07-17T02:59:50;99030.22;;;14.27;90.35
4398;BME280;2213;49.720;7.296;2022-07-17T03:02:21;99028.94;;;14.23;90.54
4398;BME280;2213;49.720;7.296;2022-07-17T03:04:51;99028.94;;;14.23;90.51
4398;BME280;2213;49.720;7.296;2022-07-17T03:07:23;99029.69;;;14.17;90.69
4398;BME280;2213;49.720;7.296;2022-07-17T03:09:52;99040.59;;;14.14;90.76
4398;BME280;2213;49.720;7.296;2022-07-17T03:12:21;99035.78;;;14.18;91.02
4398;BME280;2213;49.720;7.296;2022-07-17T03:14:51;99028.06;;;14.16;91.24
4398;BME280;2213;49.720;7.296;2022-07-17T03:17:21;99027.06;;;14.17;91.65
4398;BME280;2213;49.720;7.296;2022-07-17T03:19:50;99033.06;;;14.11;90.91
4398;BME280;2213;49.720;7.296;2022-07-17T03:22:21;99031.25;;;14.11;91.17
4398;BME280;2213;49.720;7.296;2022-07-17T03:24:51;99034.06;;;14.10;91.09
4398;BME280;2213;49.720;7.296;2022-07-17T03:27:20;99040.16;;;14.10;90.69
4398;BME280;2213;49.720;7.296;2022-07-17T03:29:52;99029.81;;;14.09;90.95
4398;BME280;2213;49.720;7.296;2022-07-17T03:32:22;99033.38;;;14.01;90.72
4398;BME280;2213;49.720;7.296;2022-07-17T03:34:51;99029.56;;;14.04;91.44
4398;BME280;2213;49.720;7.296;2022-07-17T03:37:23;99030.91;;;14.00;91.10
4398;BME280;2213;49.720;7.296;2022-07-17T03:39:53;99040.16;;;13.96;91.12
4398;BME280;2213;49.720;7.296;2022-07-17T03:42:22;99041.19;;;13.95;91.24
4398;BME280;2213;49.720;7.296;2022-07-17T03:44:52;99043.16;;;13.93;91.13
4398;BME280;2213;49.720;7.296;2022-07-17T03:47:21;99037.00;;;13.86;91.29
4398;BME280;2213;49.720;7.296;2022-07-17T03:49:51;99038.66;;;13.87;91.72
4398;BME280;2213;49.720;7.296;2022-07-17T03:52:23;99039.63;;;13.86;91.78
4398;BME280;2213;49.720;7.296;2022-07-17T03:54:53;99034.94;;;13.81;91.68
4398;BME280;2213;49.720;7.296;2022-07-17T03:57:23;99036.09;;;13.79;91.98
4398;BME280;2213;49.720;7.296;2022-07-17T03:59:53;99034.22;;;13.73;92.37
4398;BME280;2213;49.720;7.296;2022-07-17T04:02:23;99036.41;;;13.69;93.17
4398;BME280;2213;49.720;7.296;2022-07-17T04:04:53;99030.31;;;13.69;93.03
4398;BME280;2213;49.720;7.296;2022-07-17T04:07:24;99034.84;;;13.75;93.78
4398;BME280;2213;49.720;7.296;2022-07-17T04:09:58;99043.75;;;13.74;93.41
4398;BME280;2213;49.720;7.296;2022-07-17T04:12:29;99036.56;;;13.68;93.05
4398;BME280;2213;49.720;7.296;2022-07-17T04:15:00;99044.19;;;13.63;93.17
4398;BME280;2213;49.720;7.296;2022-07-17T04:17:29;99044.38;;;13.61;94.18
4398;BME280;2213;49.720;7.296;2022-07-17T04:19:58;99051.72;;;13.66;93.77
4398;BME280;2213;49.720;7.296;2022-07-17T04:22:30;99049.63;;;13.61;94.85
4398;BME280;2213;49.720;7.296;2022-07-17T04:25:01;99051.88;;;13.64;95.07
4398;BME280;2213;49.720;7.296;2022-07-17T04:27:30;99061.50;;;13.72;94.41
4398;BME280;2213;49.720;7.296;2022-07-17T04:30:01;99059.22;;;13.69;93.92
4398;BME280;2213;49.720;7.296;2022-07-17T04:32:30;99061.41;;;13.65;94.02
4398;BME280;2213;49.720;7.296;2022-07-17T04:35:01;99060.59;;;13.65;94.02
4398;BME280;2213;49.720;7.296;2022-07-17T04:37:33;99070.28;;;13.64;95.01
4398;BME280;2213;49.720;7.296;2022-07-17T04:40:03;99067.47;;;13.66;94.77
4398;BME280;2213;49.720;7.296;2022-07-17T04:42:35;99069.94;;;13.67;94.42
4398;BME280;2213;49.720;7.296;2022-07-17T04:45:06;99076.00;;;13.68;94.68
4398;BME280;2213;49.720;7.296;2022-07-17T04:47:36;99070.72;;;13.68;94.91
4398;BME280;2213;49.720;7.296;2022-07-17T04:50:07;99076.28;;;13.73;94.90
4398;BME280;2213;49.720;7.296;2022-07-17T04:52:38;99069.84;;;13.75;95.27
4398;BME280;2213;49.720;7.296;2022-07-17T04:55:08;99070.28;;;13.79;95.98
4398;BME280;2213;49.720;7.296;2022-07-17T04:57:39;99073.38;;;13.82;95.95
4398;BME280;2213;49.720;7.296;2022-07-17T05:00:11;99070.19;;;13.87;95.85
4398;BME280;2213;49.720;7.296;2022-07-17T05:02:40;99067.56;;;13.87;94.76
4398;BME280;2213;49.720;7.296;2022-07-17T05:05:12;99077.72;;;13.90;94.16
4398;BME280;2213;49.720;7.296;2022-07-17T05:07:43;99077.34;;;13.93;94.28
4398;BME280;2213;49.720;7.296;2022-07-17T05:10:15;99070.72;;;13.97;94.45
4398;BME280;2213;49.720;7.296;2022-07-17T05:12:44;99073.97;;;13.99;94.13
4398;BME280;2213;49.720;7.296;2022-07-17T05:15:14;99084.16;;;14.02;93.76
4398;BME280;2213;49.720;7.296;2022-07-17T05:17:44;99089.44;;;14.02;93.46
4398;BME280;2213;49.720;7.296;2022-07-17T05:20:13;99080.34;;;14.04;93.28
4398;BME280;2213;49.720;7.296;2022-07-17T05:22:45;99079.81;;;14.09;93.18
4398;BME280;2213;49.720;7.296;2022-07-17T05:25:14;99075.97;;;14.11;92.95
4398;BME280;2213;49.720;7.296;2022-07-17T05:27:44;99081.50;;;14.17;92.84
4398;BME280;2213;49.720;7.296;2022-07-17T05:30:13;99076.88;;;14.19;92.74
4398;BME280;2213;49.720;7.296;2022-07-17T05:32:44;99080.56;;;14.24;92.92
4398;BME280;2213;49.720;7.296;2022-07-17T05:35:15;99071.31;;;14.28;92.78
4398;BME280;2213;49.720;7.296;2022-07-17T05:37:47;99080.47;;;14.32;92.56
4398;BME280;2213;49.720;7.296;2022-07-17T05:40:17;99071.59;;;14.33;92.65
4398;BME280;2213;49.720;7.296;2022-07-17T05:42:46;99075.31;;;14.39;92.64
4398;BME280;2213;49.720;7.296;2022-07-17T05:45:17;99079.81;;;14.45;93.30
4398;BME280;2213;49.720;7.296;2022-07-17T05:47:46;99068.09;;;14.47;93.53
4398;BME280;2213;49.720;7.296;2022-07-17T05:50:16;99072.81;;;14.52;93.86
4398;BME280;2213;49.720;7.296;2022-07-17T05:52:48;99072.25;;;14.56;94.21
4398;BME280;2213;49.720;7.296;2022-07-17T05:55:22;99077.16;;;14.59;94.78
4398;BME280;2213;49.720;7.296;2022-07-17T05:57:53;99076.41;;;14.66;95.10
4398;BME280;2213;49.720;7.296;2022-07-17T06:00:22;99077.66;;;14.70;95.09
4398;BME280;2213;49.720;7.296;2022-07-17T06:02:51;99081.34;;;14.75;94.91
4398;BME280;2213;49.720;7.296;2022-07-17T06:05:20;99079.78;;;14.81;94.47
4398;BME280;2213;49.720;7.296;2022-07-17T06:07:51;99076.41;;;14.87;94.03
4398;BME280;2213;49.720;7.296;2022-07-17T06:10:20;99075.03;;;14.91;94.29
4398;BME280;2213;49.720;7.296;2022-07-17T06:12:50;99081.34;;;14.96;93.63
4398;BME280;2213;49.720;7.296;2022-07-17T06:15:22;99081.22;;;15.04;93.26
4398;BME280;2213;49.720;7.296;2022-07-17T06:17:51;99073.59;;;15.09;93.46
4398;BME280;2213;49.720;7.296;2022-07-17T06:20:22;99073.81;;;15.15;93.45
4398;BME280;2213;49.720;7.296;2022-07-17T06:22:53;99063.53;;;15.20;93.24
4398;BME280;2213;49.720;7.296;2022-07-17T06:25:23;99059.13;;;15.27;92.90
4398;BME280;2213;49.720;7.296;2022-07-17T06:28:14;99065.44;;;15.32;93.00
4398;BME280;2213;49.720;7.296;2022-07-17T06:30:43;99062.03;;;15.38;93.12
4398;BME280;2213;49.720;7.296;2022-07-17T06:33:15;99058.81;;;15.43;93.20
4398;BME280;2213;49.720;7.296;2022-07-17T06:35:44;99062.53;;;15.48;93.78
4398;BME280;2213;49.720;7.296;2022-07-17T06:38:15;99059.13;;;15.54;93.33
4398;BME280;2213;49.720;7.296;2022-07-17T06:40:45;99060.16;;;15.60;93.54
4398;BME280;2213;49.720;7.296;2022-07-17T06:43:16;99061.03;;;15.67;92.98
4398;BME280;2213;49.720;7.296;2022-07-17T06:45:45;99070.78;;;15.73;92.59
4398;BME280;2213;49.720;7.296;2022-07-17T06:48:17;99071.84;;;15.79;92.50
4398;BME280;2213;49.720;7.296;2022-07-17T06:50:48;99065.56;;;15.86;92.33
4398;BME280;2213;49.720;7.296;2022-07-17T06:53:18;99071.69;;;15.93;92.63
4398;BME280;2213;49.720;7.296;2022-07-17T06:55:48;99071.13;;;15.98;92.33
4398;BME280;2213;49.720;7.296;2022-07-17T06:58:19;99063.66;;;16.08;90.33
4398;BME280;2213;49.720;7.296;2022-07-17T07:00:50;99067.38;;;16.20;86.15
4398;BME280;2213;49.720;7.296;2022-07-17T07:03:21;99058.25;;;16.29;84.07
4398;BME280;2213;49.720;7.296;2022-07-17T07:05:51;99058.50;;;16.41;80.98
4398;BME280;2213;49.720;7.296;2022-07-17T07:08:23;99061.34;;;16.52;79.31
4398;BME280;2213;49.720;7.296;2022-07-17T07:10:54;99067.72;;;16.65;73.69
4398;BME280;2213;49.720;7.296;2022-07-17T07:13:24;99070.38;;;16.78;74.77
4398;BME280;2213;49.720;7.296;2022-07-17T07:15:57;99072.44;;;16.89;74.29
4398;BME280;2213;49.720;7.296;2022-07-17T07:18:34;99075.66;;;16.97;72.11
4398;BME280;2213;49.720;7.296;2022-07-17T07:21:04;99076.91;;;17.08;72.51
4398;BME280;2213;49.720;7.296;2022-07-17T07:23:36;99073.25;;;17.16;72.14
4398;BME280;2213;49.720;7.296;2022-07-17T07:26:06;99071.22;;;17.24;71.70
4398;BME280;2213;49.720;7.296;2022-07-17T07:28:36;99075.91;;;17.35;68.51
4398;BME280;2213;49.720;7.296;2022-07-17T07:31:08;99064.06;;;17.44;67.64
4398;BME280;2213;49.720;7.296;2022-07-17T07:33:39;99064.66;;;17.53;66.40
4398;BME280;2213;49.720;7.296;2022-07-17T07:36:10;99056.53;;;17.61;66.99
4398;BME280;2213;49.720;7.296;2022-07-17T07:38:43;99062.22;;;17.71;67.15
4398;BME280;2213;49.720;7.296;2022-07-17T07:41:14;99055.91;;;17.79;67.45
4398;BME280;2213;49.720;7.296;2022-07-17T07:43:45;99056.50;;;17.87;67.19
4398;BME280;2213;49.720;7.296;2022-07-17T07:46:15;99051.38;;;17.92;67.63
4398;BME280;2213;49.720;7.296;2022-07-17T07:48:45;99047.06;;;17.98;67.13
4398;BME280;2213;49.720;7.296;2022-07-17T07:51:16;99046.03;;;18.05;64.92
4398;BME280;2213;49.720;7.296;2022-07-17T07:54:09;99048.81;;;18.17;64.61
4398;BME280;2213;49.720;7.296;2022-07-17T07:56:38;99042.09;;;18.21;65.54
4398;BME280;2213;49.720;7.296;2022-07-17T07:59:09;99035.13;;;18.27;63.59
4398;BME280;2213;49.720;7.296;2022-07-17T08:01:40;99042.84;;;18.35;62.79
4398;BME280;2213;49.720;7.296;2022-07-17T08:04:10;99044.44;;;18.42;61.38
4398;BME280;2213;49.720;7.296;2022-07-17T08:06:40;99031.97;;;18.49;61.50
4398;BME280;2213;49.720;7.296;2022-07-17T08:09:14;99046.78;;;18.57;61.87
4398;BME280;2213;49.720;7.296;2022-07-17T08:11:43;99050.00;;;18.66;61.01
4398;BME280;2213;49.720;7.296;2022-07-17T08:14:15;99051.56;;;18.80;59.34
4398;BME280;2213;49.720;7.296;2022-07-17T08:16:45;99056.16;;;18.91;59.26
4398;BME280;2213;49.720;7.296;2022-07-17T08:19:14;99050.56;;;18.99;58.74
4398;BME280;2213;49.720;7.296;2022-07-17T08:21:44;99054.16;;;19.11;58.71
4398;BME280;2213;49.720;7.296;2022-07-17T08:24:15;99052.41;;;19.23;57.77
4398;BME280;2213;49.720;7.296;2022-07-17T08:26:46;99046.63;;;19.33;57.87
4398;BME280;2213;49.720;7.296;2022-07-17T08:29:15;99033.91;;;19.41;57.27
4398;BME280;2213;49.720;7.296;2022-07-17T08:32:05;99038.72;;;19.51;56.16
4398;BME280;2213;49.720;7.296;2022-07-17T08:34:35;99043.53;;;19.61;55.20
4398;BME280;2213;49.720;7.296;2022-07-17T08:37:05;99042.78;;;19.72;54.43
4398;BME280;2213;49.720;7.296;2022-07-17T08:39:37;99033.94;;;19.78;54.01
4398;BME280;2213;49.720;7.296;2022-07-17T08:42:15;99028.13;;;19.87;53.93
4398;BME280;2213;49.720;7.296;2022-07-17T08:44:48;99021.81;;;20.00;53.15
4398;BME280;2213;49.720;7.296;2022-07-17T08:47:21;99028.03;;;20.12;52.85
4398;BME280;2213;49.720;7.296;2022-07-17T08:49:52;99021.34;;;20.21;52.87
4398;BME280;2213;49.720;7.296;2022-07-17T08:52:24;99021.44;;;20.33;52.36
4398;BME280;2213;49.720;7.296;2022-07-17T08:54:57;99027.47;;;20.40;52.39
4398;BME280;2213;49.720;7.296;2022-07-17T08:57:27;99027.84;;;20.43;52.28
4398;BME280;2213;49.720;7.296;2022-07-17T08:59:58;99026.09;;;20.49;52.60
4398;BME280;2213;49.720;7.296;2022-07-17T09:02:31;99014.56;;;20.55;52.16
4398;BME280;2213;49.720;7.296;2022-07-17T09:05:04;99015.06;;;20.64;51.26
4398;BME280;2213;49.720;7.296;2022-07-17T09:07:46;99012.75;;;20.67;50.24
4398;BME280;2213;49.720;7.296;2022-07-17T09:10:29;99014.28;;;20.75;49.57
4398;BME280;2213;49.720;7.296;2022-07-17T09:13:00;99011.97;;;20.78;49.37
4398;BME280;2213;49.720;7.296;2022-07-17T09:15:34;99009.88;;;20.80;49.62
4398;BME280;2213;49.720;7.296;2022-07-17T09:18:08;99018.69;;;20.81;49.85
4398;BME280;2213;49.720;7.296;2022-07-17T09:20:45;99016.59;;;20.83;49.95
4398;BME280;2213;49.720;7.296;2022-07-17T09:23:19;99019.16;;;20.89;48.35
4398;BME280;2213;49.720;7.296;2022-07-17T09:25:53;99022.19;;;20.93;47.91
4398;BME280;2213;49.720;7.296;2022-07-17T09:28:23;99021.47;;;20.97;47.15
4398;BME280;2213;49.720;7.296;2022-07-17T09:30:55;99015.47;;;21.02;47.67
4398;BME280;2213;49.720;7.296;2022-07-17T09:33:28;99012.13;;;21.06;45.05
4398;BME280;2213;49.720;7.296;2022-07-17T09:36:08;99016.78;;;21.11;45.78
4398;BME280;2213;49.720;7.296;2022-07-17T09:38:41;99011.56;;;21.16;44.83
4398;BME280;2213;49.720;7.296;2022-07-17T09:41:17;99013.88;;;21.24;44.45
4398;BME280;2213;49.720;7.296;2022-07-17T09:43:50;99005.19;;;21.29;43.90
4398;BME280;2213;49.720;7.296;2022-07-17T09:46:26;99001.84;;;21.33;44.25
4398;BME280;2213;49.720;7.296;2022-07-17T09:48:59;99003.00;;;21.37;44.01
4398;BME280;2213;49.720;7.296;2022-07-17T09:51:32;99007.06;;;21.40;44.17
4398;BME280;2213;49.720;7.296;2022-07-17T09:54:05;99006.03;;;21.41;44.71
4398;BME280;2213;49.720;7.296;2022-07-17T09:56:37;99012.25;;;21.46;44.66
4398;BME280;2213;49.720;7.296;2022-07-17T09:59:10;99003.78;;;21.49;44.31
4398;BME280;2213;49.720;7.296;2022-07-17T10:01:41;99013.63;;;21.61;42.64
4398;BME280;2213;49.720;7.296;2022-07-17T10:04:12;99020.91;;;21.65;41.58
4398;BME280;2213;49.720;7.296;2022-07-17T10:06:43;99016.28;;;21.72;41.34
4398;BME280;2213;49.720;7.296;2022-07-17T10:09:12;99022.50;;;21.78;41.98
4398;BME280;2213;49.720;7.296;2022-07-17T10:11:45;99017.53;;;21.81;41.71
4398;BME280;2213;49.720;7.296;2022-07-17T10:14:16;99013.00;;;21.82;42.12
4398;BME280;2213;49.720;7.296;2022-07-17T10:16:47;99022.16;;;21.86;41.88
4398;BME280;2213;49.720;7.296;2022-07-17T10:19:19;99021.44;;;21.90;41.85
4398;BME280;2213;49.720;7.296;2022-07-17T10:21:55;99019.72;;;21.96;41.82
4398;BME280;2213;49.720;7.296;2022-07-17T10:24:25;99019.34;;;22.04;42.42
4398;BME280;2213;49.720;7.296;2022-07-17T10:26:59;99014.34;;;22.07;40.45
4398;BME280;2213;49.720;7.296;2022-07-17T10:29:32;99014.22;;;22.14;39.57
4398;BME280;2213;49.720;7.296;2022-07-17T10:32:14;99016.97;;;22.19;40.11
4398;BME280;2213;49.720;7.296;2022-07-17T10:34:48;99013.25;;;22.20;39.26
4398;BME280;2213;49.720;7.296;2022-07-17T10:37:23;99006.16;;;22.26;39.06
4398;BME280;2213;49.720;7.296;2022-07-17T10:40:16;99004.97;;;22.33;39.53
4398;BME280;2213;49.720;7.296;2022-07-17T10:42:55;99005.09;;;22.38;39.18
4398;BME280;2213;49.720;7.296;2022-07-17T10:45:31;99010.25;;;22.45;40.06
4398;BME280;2213;49.720;7.296;2022-07-17T10:48:06;99002.66;;;22.53;39.73
4398;BME280;2213;49.720;7.296;2022-07-17T10:50:39;98996.34;;;22.59;39.99
4398;BME280;2213;49.720;7.296;2022-07-17T10:53:17;98993.78;;;22.65;39.92
4398;BME280;2213;49.720;7.296;2022-07-17T10:55:55;98990.66;;;22.68;38.48
4398;BME280;2213;49.720;7.296;2022-07-17T10:58:29;99003.84;;;22.74;38.91
4398;BME280;2213;49.720;7.296;2022-07-17T11:01:03;98995.78;;;22.86;38.47
4398;BME280;2213;49.720;7.296;2022-07-17T11:03:39;99002.25;;;22.90;37.73
4398;BME280;2213;49.720;7.296;2022-07-17T11:06:15;99001.28;;;22.96;37.80
4398;BME280;2213;49.720;7.296;2022-07-17T11:08:48;99002.63;;;22.98;37.99
4398;BME280;2213;49.720;7.296;2022-07-17T11:11:22;99004.91;;;23.06;38.57
4398;BME280;2213;49.720;7.296;2022-07-17T11:14:10;99005.78;;;23.12;39.00
4398;BME280;2213;49.720;7.296;2022-07-17T11:16:47;99013.88;;;23.17;38.60
4398;BME280;2213;49.720;7.296;2022-07-17T11:19:25;99006.19;;;23.21;38.53
4398;BME280;2213;49.720;7.296;2022-07-17T11:21:56;99005.94;;;23.22;38.05
4398;BME280;2213;49.720;7.296;2022-07-17T11:24:36;98996.69;;;23.30;38.04
4398;BME280;2213;49.720;7.296;2022-07-17T11:27:10;98998.16;;;23.37;38.25
4398;BME280;2213;49.720;7.296;2022-07-17T11:29:44;99001.16;;;23.41;38.21
4398;BME280;2213;49.720;7.296;2022-07-17T11:32:13;99000.75;;;23.49;38.45
4398;BME280;2213;49.720;7.296;2022-07-17T11:35:02;98997.59;;;23.52;36.83
4398;BME280;2213;49.720;7.296;2022-07-17T11:37:51;98997.41;;;23.59;36.35
4398;BME280;2213;49.720;7.296;2022-07-17T11:40:21;98997.22;;;23.65;34.54
4398;BME280;2213;49.720;7.296;2022-07-17T11:43:00;98994.94;;;23.74;34.13
4398;BME280;2213;49.720;7.296;2022-07-17T11:45:31;98987.69;;;23.74;33.87
4398;BME280;2213;49.720;7.296;2022-07-17T11:48:01;98983.78;;;23.82;34.33
4398;BME280;2213;49.720;7.296;2022-07-17T11:50:31;98988.94;;;23.88;34.51
4398;BME280;2213;49.720;7.296;2022-07-17T11:53:02;98977.78;;;23.91;32.92
4398;BME280;2213;49.720;7.296;2022-07-17T11:55:37;98966.00;;;23.92;33.07
4398;BME280;2213;49.720;7.296;2022-07-17T11:58:06;98966.88;;;23.98;33.55
4398;BME280;2213;49.720;7.296;2022-07-17T12:00:37;98973.38;;;24.07;33.77
4398;BME280;2213;49.720;7.296;2022-07-17T12:03:07;98978.81;;;24.12;34.01
4398;BME280;2213;49.720;7.296;2022-07-17T12:05:38;98975.09;;;24.13;33.48
4398;BME280;2213;49.720;7.296;2022-07-17T12:08:09;98966.06;;;24.19;33.96
4398;BME280;2213;49.720;7.296;2022-07-17T12:10:58;98968.53;;;24.26;33.37
4398;BME280;2213;49.720;7.296;2022-07-17T12:13:42;98968.84;;;24.29;33.64
4398;BME280;2213;49.720;7.296;2022-07-17T12:16:24;98976.09;;;24.34;32.91
4398;BME280;2213;49.720;7.296;2022-07-17T12:19:05;98966.28;;;24.39;32.84
4398;BME280;2213;49.720;7.296;2022-07-17T12:21:52;98961.81;;;24.50;33.68
4398;BME280;2213;49.720;7.296;2022-07-17T12:24:26;98961.84;;;24.55;33.94
4398;BME280;2213;49.720;7.296;2022-07-17T12:26:58;98960.34;;;24.64;33.53
4398;BME280;2213;49.720;7.296;2022-07-17T12:29:28;98956.88;;;24.69;34.38
4398;BME280;2213;49.720;7.296;2022-07-17T12:32:06;98958.25;;;24.71;33.96
4398;BME280;2213;49.720;7.296;2022-07-17T12:34:39;98963.44;;;24.83;32.99
4398;BME280;2213;49.720;7.296;2022-07-17T12:37:12;98953.59;;;24.88;33.36
4398;BME280;2213;49.720;7.296;2022-07-17T12:39:43;98948.53;;;24.92;33.13
4398;BME280;2213;49.720;7.296;2022-07-17T12:42:13;98947.50;;;24.98;32.94
4398;BME280;2213;49.720;7.296;2022-07-17T12:44:43;98947.28;;;25.04;32.74
4398;BME280;2213;49.720;7.296;2022-07-17T12:47:14;98944.41;;;25.16;33.52
4398;BME280;2213;49.720;7.296;2022-07-17T12:49:44;98944.41;;;25.21;32.82
4398;BME280;2213;49.720;7.296;2022-07-17T12:52:12;98941.78;;;25.26;33.90
4398;BME280;2213;49.720;7.296;2022-07-17T12:54:42;98940.72;;;25.32;33.95
4398;BME280;2213;49.720;7.296;2022-07-17T12:57:14;98933.78;;;25.36;34.37
4398;BME280;2213;49.720;7.296;2022-07-17T12:59:43;98942.41;;;25.43;33.50
4398;BME280;2213;49.720;7.296;2022-07-17T13:02:14;98939.44;;;25.45;33.69
4398;BME280;2213;49.720;7.296;2022-07-17T13:04:44;98933.31;;;25.49;33.42
4398;BME280;2213;49.720;7.296;2022-07-17T13:07:15;98936.84;;;25.55;33.14
4398;BME280;2213;49.720;7.296;2022-07-17T13:09:45;98932.84;;;25.63;33.95
4398;BME280;2213;49.720;7.296;2022-07-17T13:12:15;98935.84;;;25.71;32.99
4398;BME280;2213;49.720;7.296;2022-07-17T13:14:45;98929.16;;;25.74;32.87
4398;BME280;2213;49.720;7.296;2022-07-17T13:17:15;98928.38;;;25.78;32.66
4398;BME280;2213;49.720;7.296;2022-07-17T13:19:46;98925.69;;;25.83;32.63
4398;BME280;2213;49.720;7.296;2022-07-17T13:22:17;98925.97;;;25.87;33.21
4398;BME280;2213;49.720;7.296;2022-07-17T13:24:47;98924.38;;;25.91;33.41
4398;BME280;2213;49.720;7.296;2022-07-17T13:27:16;98922.78;;;25.95;34.26
4398;BME280;2213;49.720;7.296;2022-07-17T13:29:48;98923.84;;;26.04;34.61
4398;BME280;2213;49.720;7.296;2022-07-17T13:32:20;98912.63;;;26.12;34.31
4398;BME280;2213;49.720;7.296;2022-07-17T13:34:50;98916.41;;;26.21;33.91
4398;BME280;2213;49.720;7.296;2022-07-17T13:37:20;98904.09;;;26.30;33.57
4398;BME280;2213;49.720;7.296;2022-07-17T13:39:50;98910.53;;;26.44;33.44
4398;BME280;2213;49.720;7.296;2022-07-17T13:42:19;98899.22;;;26.63;33.18
4398;BME280;2213;49.720;7.296;2022-07-17T13:44:49;98901.38;;;26.71;32.94
4398;BME280;2213;49.720;7.296;2022-07-17T13:47:21;98908.88;;;26.79;32.78